Flight Track Log - Related Links

Times and Time Zones

All times are in EDT time to prevent confusion due to time zone crossing. See the RPA3275 flight status page for this flight to view local times or setup timezone preferences in your user account.

Time Position Orientation Groundspeed Altitude Reporting Facility
EDT Latitude Longitude Course Direction KTS MPH feet Rate Location/Type
Sat 08:36:00 AM 42.7611 -73.8061 220° Southwest 136 157 1,400  Level Boston Center
Sat 08:37:07 AM 42.7856 -73.8575 303° West 218 251 3,900 2,688 Climbing Boston Center
Sat 08:38:00 AM 42.7333 -74.1361 270° West  Level FlightAware Approximate
Sat 08:38:05 AM 42.7758 -73.9561 262° West 298 343 7,000  Level Boston Center
Sat 08:39:00 AM 42.7333 -74.2482 270° West  Level FlightAware Approximate
Sat 08:39:05 AM 42.7681 -74.0664 265° West 304 350 10,700  Level Boston Center
Sat 08:40:00 AM 42.6922 -74.3610 220° Southwest  Level FlightAware Approximate
Sat 08:40:05 AM 42.7558 -74.1847 262° West 316 364 13,400  Level Boston Center
Sat 08:41:00 AM 42.6155 -74.4472 220° Southwest  Level FlightAware Approximate
Sat 08:41:05 AM 42.7394 -74.3031 259° West 345 397 16,100  Level Boston Center
Sat 08:42:05 AM 42.6628 -74.4053 224° Southwest 346 398 18,800 1,450 Climbing Boston Center
Sat 08:43:05 AM 42.5861 -74.4931 220° Southwest 383 441 19,000 77 Climbing Boston Center
Sat 08:44:41 AM 42.4403 -74.6594 220° Southwest 404 465 19,000  Level New York Center
Sat 08:45:42 AM 42.3558 -74.7583 221° Southwest 404 465 19,000  Level New York Center
Sat 08:46:42 AM 42.2694 -74.8539 219° Southwest 404 465 19,000  Level New York Center
Sat 08:47:42 AM 42.1828 -74.9519 220° Southwest 404 465 19,000  Level New York Center
Sat 08:48:42 AM 42.0903 -75.0356 214° Southwest 410 472 19,000  Level New York Center
Sat 08:49:43 AM 41.9958 -75.1131 211° Southwest 417 480 19,000  Level New York Center
Sat 08:50:43 AM 41.9103 -75.1800 210° Southwest 406 467 19,000  Level New York Center
Sat 08:51:41 AM 41.8028 -75.2675 211° Southwest 406 467 19,000 -400 Level New York Center
Sat 08:52:43 AM 41.7083 -75.3417 210° Southwest 406 467 18,200 -950 Descending New York Center
Sat 08:53:41 AM 41.6136 -75.4211 212° Southwest 406 467 17,100 -2,033 Descending New York Center
Sat 08:54:44 AM 41.5297 -75.4872 211° Southwest 399 459 14,100 -2,550 Descending New York Center
Sat 08:55:41 AM 41.4394 -75.5583 211° Southwest 399 459 12,000 -1,077 Descending New York Center
Sat 08:56:41 AM 41.3197 -75.5831 189° South 384 442 12,000  Level New York Center
Sat 08:57:43 AM 41.2103 -75.5642 173° South 390 449 12,000  Level New York Center
Sat 08:58:43 AM 41.0986 -75.5425 172° South 402 463 12,000  Level New York Center
Sat 08:59:41 AM 40.9847 -75.5264 174° South 408 470 12,000  Level New York Center
Sat 09:00:41 AM 40.8708 -75.5047 172° South 408 470 12,000  Level New York Center
Sat 09:01:43 AM 40.7714 -75.4894 173° South 408 470 12,000  Level New York Center
Sat 09:02:42 AM 40.6597 -75.4681 172° South 408 470 12,000 -200 Level New York Center
Sat 09:03:43 AM 40.5500 -75.4497 173° South 403 464 11,600 -992 Descending New York Center
Sat 09:04:43 AM 40.4531 -75.4294 171° South 379 436 10,000 -1,150 Descending New York Center
Sat 09:05:43 AM 40.3672 -75.3856 159° South 344 396 9,300 -942 Descending New York Center
Sat 09:06:44 AM 40.2794 -75.3336 156° South 321 369 8,100 -1,119 Descending New York Center
Sat 09:07:41 AM 40.2039 -75.2931 158° South 321 369 7,100 -1,059 Descending New York Center
Sat 09:08:43 AM 40.1264 -75.2500 157° South 311 358 6,000 -942 Descending New York Center
Sat 09:09:42 AM 40.0592 -75.2106 156° South 265 305 5,200 -541 Descending New York Center
Sat 09:10:34 AM 40.0000 -75.1833 161° South 247 284 5,000 -107 Descending Philadelphia TRACON
Sat 09:11:34 AM 39.9833 -75.1167 108° East 186 214 5,000 -500 Level Philadelphia TRACON
Sat 09:12:34 AM 40.0000 -75.0500 72° East 192 221 4,000 -678 Descending Philadelphia TRACON
Sat 09:13:29 AM 39.9500 -75.0167 153° Southeast 241 277 3,700 -645 Descending Philadelphia TRACON
Sat 09:14:35 AM 39.9000 -75.0500 207° Southwest 166 191 2,700 -909 Descending Philadelphia TRACON

Login

Don't have an account? Register now (free) for customized features, flight alerts, and more!